Time;durP1;ratioP1;P1;durP2;ratioP2;P2;SDS_P1;SDS_P2;PMS_P1;PMS_P2;Temp;Humidity;BMP_temperature;BMP_pressure;BME280_temperature;BME280_humidity;BME280_pressure;Samples;Min_cycle;Max_cycle;Signal;HPM_P1;HPM_P2
2023/03/27 00:01:21;;;;;;;10.50;5.13;;;;;;;;;;5076530;28;20171;-80
2023/03/27 00:03:49;;;;;;;10.03;5.10;;;4.60;99.90;;;;;;5075784;28;20199;-82
2023/03/27 00:06:17;;;;;;;9.23;5.60;;;4.70;99.90;;;;;;5075710;28;20224;-84
2023/03/27 00:08:45;;;;;;;11.27;5.30;;;4.80;99.90;;;;;;5075959;28;20177;-81
2023/03/27 00:11:11;;;;;;;15.07;5.97;;;;;;;;;;5058130;28;20178;-81
2023/03/27 00:13:37;;;;;;;16.30;7.70;;;;;;;;;;5041001;28;20289;-83
2023/03/27 00:16:04;;;;;;;15.33;5.63;;;4.80;99.90;;;;;;5075652;28;20201;-80
2023/03/27 00:18:32;;;;;;;14.40;6.47;;;4.90;99.90;;;;;;5075756;28;20179;-80
2023/03/27 00:20:59;;;;;;;10.67;5.40;;;4.90;99.90;;;;;;5075036;28;20223;-80
2023/03/27 00:23:28;;;;;;;11.33;5.60;;;;;;;;;;5075466;28;20171;-81
2023/03/27 00:25:55;;;;;;;18.43;6.67;;;;;;;;;;5075583;28;20179;-80
2023/03/27 00:28:21;;;;;;;10.27;5.67;;;;;;;;;;5040474;28;20631;-81
2023/03/27 00:30:48;;;;;;;8.63;5.20;;;;;;;;;;5057875;28;20213;-81
2023/03/27 00:33:14;;;;;;;10.60;3.70;;;;;;;;;;5057221;28;20289;-81
2023/03/27 00:35:45;;;;;;;5.67;3.90;;;5.20;99.90;;;;;;5075104;28;20654;-81
2023/03/27 00:38:11;;;;;;;3.73;3.20;;;;;;;;;;5057155;28;20175;-80
2023/03/27 00:40:37;;;;;;;6.20;3.50;;;;;;;;;;5075305;28;20266;-81
2023/03/27 00:43:26;;;;;;;7.10;3.50;;;5.10;99.90;;;;;;5057138;28;20190;-80
2023/03/27 00:46:00;;;;;;;8.57;3.83;;;5.50;99.90;;;;;;5057410;28;20195;-80
2023/03/27 00:48:27;;;;;;;5.83;3.63;;;5.60;99.90;;;;;;5057185;28;20223;-80
2023/03/27 00:50:56;;;;;;;4.77;3.27;;;5.60;99.90;;;;;;5040799;28;20190;-80
2023/03/27 00:53:25;;;;;;;7.97;4.03;;;5.70;99.90;;;;;;5056840;28;20194;-80
2023/03/27 00:55:54;;;;;;;8.83;4.30;;;6.10;99.90;;;;;;5057173;28;20171;-80
2023/03/27 00:58:29;;;;;;;4.67;2.90;;;5.70;99.90;;;;;;5074696;28;20175;-80
2023/03/27 01:00:56;;;;;;;5.80;2.97;;;5.70;99.90;;;;;;5057176;28;20277;-81
2023/03/27 01:03:26;;;;;;;9.20;4.67;;;5.70;99.90;;;;;;5074528;28;20179;-81
2023/03/27 01:05:54;;;;;;;4.53;3.37;;;5.70;99.90;;;;;;5074624;28;20246;-80
2023/03/27 01:08:20;;;;;;;7.63;3.60;;;5.70;99.90;;;;;;5074469;28;20182;-80
2023/03/27 01:11:00;;;;;;;4.93;3.23;;;5.70;99.90;;;;;;5074395;28;20283;-81
2023/03/27 01:14:03;;;;;;;6.33;3.60;;;5.70;99.90;;;;;;5074643;28;20168;-80
2023/03/27 01:16:29;;;;;;;5.93;2.97;;;;;;;;;;5056631;28;20171;-80
2023/03/27 01:18:55;;;;;;;3.77;3.30;;;5.80;99.90;;;;;;5056627;28;20275;-81
2023/03/27 01:21:47;;;;;;;3.83;3.13;;;5.80;99.90;;;;;;5046817;28;20228;-80
2023/03/27 01:24:49;;;;;;;5.07;3.00;;;5.50;99.90;;;;;;5034249;28;20287;-81
2023/03/27 01:27:44;;;;;;;5.23;3.57;;;5.80;99.90;;;;;;5034263;28;20180;-80
2023/03/27 01:30:22;;;;;;;6.90;3.57;;;5.80;99.90;;;;;;5006062;28;20646;-81
2023/03/27 01:33:35;;;;;;;13.47;4.07;;;5.80;99.90;;;;;;5034017;28;20530;-80
2023/03/27 01:36:23;;;;;;;5.97;3.40;;;5.90;99.90;;;;;;4992458;28;20189;-80
2023/03/27 01:38:57;;;;;;;3.87;2.50;;;5.90;99.90;;;;;;4976306;28;20209;-81
2023/03/27 01:41:41;;;;;;;9.17;3.83;;;5.70;99.90;;;;;;5012411;28;20192;-80
2023/03/27 01:44:38;;;;;;;5.47;3.23;;;6.00;99.90;;;;;;5032738;28;20679;-81
2023/03/27 01:47:13;;;;;;;3.87;2.73;;;6.00;99.90;;;;;;5029698;28;20189;-80
2023/03/27 01:49:50;;;;;;;10.83;3.60;;;6.20;99.90;;;;;;5033992;28;20167;-80
2023/03/27 01:52:26;;;;;;;10.03;4.10;;;6.10;99.90;;;;;;5032776;28;20184;-81
2023/03/27 01:54:57;;;;;;;6.20;4.00;;;6.00;99.90;;;;;;5034059;28;20625;-81
2023/03/27 01:57:33;;;;;;;4.63;3.33;;;6.40;99.90;;;;;;5032682;28;20173;-81
2023/03/27 02:00:16;;;;;;;10.70;4.03;;;6.10;99.90;;;;;;5032529;28;20176;-80
2023/03/27 02:02:47;;;;;;;11.33;4.93;;;6.10;99.90;;;;;;5032928;28;20576;-81
2023/03/27 02:05:35;;;;;;;19.50;6.83;;;6.20;99.90;;;;;;5033600;28;20200;-81
2023/03/27 02:08:08;;;;;;;23.07;9.87;;;6.10;99.90;;;;;;5033801;28;20173;-80
2023/03/27 02:10:40;;;;;;;21.67;10.30;;;6.00;99.90;;;;;;5034083;28;20252;-81
2023/03/27 02:13:21;;;;;;;6.13;4.33;;;6.00;99.90;;;;;;5033654;28;20153;-81
2023/03/27 02:15:49;;;;;;;9.70;4.47;;;6.00;99.90;;;;;;5033742;28;20171;-80
2023/03/27 02:18:21;;;;;;;5.37;3.87;;;6.00;99.90;;;;;;5033448;28;20191;-81
2023/03/27 02:20:47;;;;;;;5.03;3.70;;;;;;;;;;5035910;28;20165;-80
2023/03/27 02:23:13;;;;;;;4.10;3.10;;;;;;;;;;5073434;28;20171;-81
2023/03/27 02:25:43;;;;;;;5.23;3.50;;;6.10;99.90;;;;;;5073576;28;20305;-81
2023/03/27 02:28:30;;;;;;;5.07;3.13;;;5.80;99.90;;;;;;5055517;28;20183;-80
2023/03/27 02:30:58;;;;;;;9.67;4.47;;;6.30;99.90;;;;;;5055518;28;20189;-80
2023/03/27 02:34:09;;;;;;;9.47;4.50;;;6.20;99.90;;;;;;5073142;28;20179;-80
2023/03/27 02:36:52;;;;;;;6.00;4.40;;;6.10;99.90;;;;;;5050946;28;20198;-81
2023/03/27 02:39:48;;;;;;;6.40;3.40;;;6.10;99.90;;;;;;5073131;28;20167;-81
2023/03/27 02:42:36;;;;;;;7.23;3.10;;;5.90;99.90;;;;;;5073232;28;20198;-82
2023/03/27 02:45:43;;;;;;;5.23;3.77;;;6.10;99.90;;;;;;5055087;28;20198;-80
2023/03/27 02:48:21;;;;;;;11.17;4.47;;;6.20;99.90;;;;;;5072500;28;20556;-80
2023/03/27 02:51:08;;;;;;;8.07;4.00;;;6.20;99.90;;;;;;5073371;28;20151;-81
2023/03/27 02:53:58;;;;;;;5.43;3.17;;;6.10;99.90;;;;;;5076517;28;20170;-80
2023/03/27 02:56:26;;;;;;;7.27;4.23;;;6.20;99.90;;;;;;5077135;28;20186;-80
2023/03/27 02:59:07;;;;;;;9.73;6.33;;;6.20;99.90;;;;;;5077245;28;20172;-80
2023/03/27 03:01:34;;;;;;;9.97;5.63;;;;;;;;;;5058994;28;20582;-80
2023/03/27 03:04:18;;;;;;;7.60;4.43;;;6.10;99.90;;;;;;5059285;28;20563;-81
2023/03/27 03:06:45;;;;;;;6.40;4.07;;;;;;;;;;5077241;28;20163;-81
2023/03/27 03:09:13;;;;;;;7.90;4.07;;;;;;;;;;5059302;28;20182;-81
2023/03/27 03:11:46;;;;;;;8.43;4.77;;;6.20;99.90;;;;;;5058808;28;20228;-81
2023/03/27 03:14:12;;;;;;;10.23;5.07;;;;;;;;;;5058793;28;20222;-81
2023/03/27 03:16:38;;;;;;;9.57;5.17;;;;;;;;;;5076690;28;20176;-82
2023/03/27 03:19:04;;;;;;;7.30;4.93;;;;;;;;;;5076868;28;20286;-81
2023/03/27 03:21:30;;;;;;;14.37;5.37;;;6.00;99.90;;;;;;5076344;28;20313;-81
2023/03/27 03:23:57;;;;;;;9.07;5.27;;;;;;;;;;5042481;28;20196;-81
2023/03/27 03:26:23;;;;;;;10.40;5.57;;;;;;;;;;5076521;28;20183;-81
2023/03/27 03:28:49;;;;;;;4.80;3.67;;;;;;;;;;5076575;28;20175;-81
2023/03/27 03:31:15;;;;;;;12.17;5.03;;;;;;;;;;5058633;28;20190;-81
2023/03/27 03:33:41;;;;;;;8.17;4.87;;;;;;;;;;5058073;28;20183;-80
2023/03/27 03:36:08;;;;;;;12.53;4.67;;;6.10;99.90;;;;;;5076067;28;20176;-81
2023/03/27 03:38:34;;;;;;;12.80;5.57;;;;;;;;;;5058329;28;20179;-81
2023/03/27 03:41:00;;;;;;;8.67;4.37;;;;;;;;;;5076251;28;20182;-81
2023/03/27 03:43:28;;;;;;;7.07;4.53;;;6.20;99.90;;;;;;5041622;28;20213;-81
2023/03/27 03:45:54;;;;;;;10.70;5.57;;;;;;;;;;5058347;28;20175;-81
2023/03/27 03:48:21;;;;;;;13.23;5.57;;;;;;;;;;5075971;28;20171;-83
2023/03/27 03:50:47;;;;;;;8.77;4.43;;;6.10;99.90;;;;;;5058325;28;20267;-82
2023/03/27 03:53:15;;;;;;;8.30;5.53;;;6.10;99.90;;;;;;5065416;28;20191;-82
2023/03/27 03:55:41;;;;;;;7.83;4.57;;;;;;;;;;5074691;28;20195;-82
2023/03/27 03:58:08;;;;;;;7.33;4.33;;;;;;;;;;5041562;28;20179;-81
2023/03/27 04:00:37;;;;;;;11.13;5.47;;;;;;;;;;5062781;28;20182;-82
2023/03/27 04:03:04;;;;;;;8.50;4.13;;;6.00;99.90;;;;;;5042483;28;20240;-81
2023/03/27 04:05:30;;;;;;;11.60;4.80;;;;;;;;;;5056854;28;20218;-82
2023/03/27 04:07:58;;;;;;;10.07;4.80;;;;;;;;;;5079120;28;20262;-82
2023/03/27 04:10:24;;;;;;;7.63;3.87;;;;;;;;;;5080976;28;20186;-83
2023/03/27 04:12:51;;;;;;;5.90;3.97;;;;;;;;;;5062581;28;20184;-82
2023/03/27 04:15:17;;;;;;;12.70;4.37;;;;;;;;;;5062630;28;20219;-81
2023/03/27 04:17:43;;;;;;;8.53;4.43;;;;;;;;;;5063115;28;20174;-82
2023/03/27 04:20:11;;;;;;;7.60;4.10;;;6.10;99.90;;;;;;5066541;28;20180;-81
2023/03/27 04:22:37;;;;;;;4.40;3.40;;;;;;;;;;5086096;28;20234;-83
2023/03/27 04:25:05;;;;;;;4.43;3.43;;;6.30;99.90;;;;;;5080907;28;20219;-82
2023/03/27 04:27:31;;;;;;;5.97;4.20;;;;;;;;;;5060114;28;20199;-82
2023/03/27 04:29:57;;;;;;;10.57;5.27;;;;;;;;;;5085052;28;20202;-84
2023/03/27 04:32:25;;;;;;;13.00;5.57;;;;;;;;;;5065221;28;20183;-83
2023/03/27 04:34:53;;;;;;;9.37;4.67;;;;;;;;;;5081078;28;20194;-83
2023/03/27 04:37:19;;;;;;;12.70;6.23;;;;;;;;;;5076666;28;20549;-82
2023/03/27 04:39:45;;;;;;;9.93;5.00;;;;;;;;;;5055292;28;20183;-83
2023/03/27 04:42:12;;;;;;;24.63;9.07;;;6.10;99.90;;;;;;5055950;28;20248;-83
2023/03/27 04:44:39;;;;;;;21.00;9.67;;;;;;;;;;5054932;28;20569;-83
2023/03/27 04:47:05;;;;;;;9.20;5.77;;;;;;;;;;5056416;28;20317;-84
2023/03/27 04:49:38;;;;;;;6.80;4.17;;;;;;;;;;5054970;28;20191;-82
2023/03/27 04:52:07;;;;;;;8.57;4.87;;;6.00;99.90;;;;;;5073514;28;20182;-82
2023/03/27 04:54:33;;;;;;;9.00;6.03;;;;;;;;;;5054735;28;20223;-83
2023/03/27 04:57:00;;;;;;;12.20;7.47;;;;;;;;;;5055216;28;20187;-82
2023/03/27 04:59:31;;;;;;;10.43;6.80;;;6.00;99.90;;;;;;5073193;28;20201;-83
2023/03/27 05:02:03;;;;;;;8.10;4.33;;;6.10;99.90;;;;;;5054709;28;20180;-83
2023/03/27 05:04:29;;;;;;;8.43;4.67;;;6.10;99.90;;;;;;5054701;28;20244;-82
2023/03/27 05:06:57;;;;;;;11.17;5.17;;;6.10;99.90;;;;;;5072974;28;20262;-83
2023/03/27 05:09:23;;;;;;;5.90;3.57;;;6.10;99.90;;;;;;5038473;28;20190;-82
2023/03/27 05:11:50;;;;;;;9.13;3.57;;;6.10;99.90;;;;;;5065369;28;20236;-82
2023/03/27 05:14:21;;;;;;;3.53;3.20;;;6.10;99.90;;;;;;5054462;28;20191;-83
2023/03/27 05:16:56;;;;;;;8.10;3.63;;;6.10;99.90;;;;;;5054993;28;20209;-81
2023/03/27 05:19:23;;;;;;;7.63;3.60;;;;;;;;;;5071858;28;20531;-82
2023/03/27 05:21:49;;;;;;;9.67;4.27;;;;;;;;;;5054713;28;20632;-82
2023/03/27 05:24:15;;;;;;;10.17;5.47;;;;;;;;;;5054094;28;20231;-82
2023/03/27 05:26:42;;;;;;;4.13;3.43;;;;;;;;;;5072323;28;20186;-82
2023/03/27 05:29:08;;;;;;;6.07;4.60;;;;;;;;;;5054901;28;20535;-82
2023/03/27 05:31:35;;;;;;;13.67;4.17;;;6.20;99.90;;;;;;5072489;28;20187;-84
2023/03/27 05:34:02;;;;;;;7.80;4.03;;;;;;;;;;5072521;28;20648;-82
2023/03/27 05:36:28;;;;;;;13.60;4.37;;;;;;;;;;5054531;28;20183;-82
2023/03/27 05:38:56;;;;;;;12.10;4.50;;;6.30;99.90;;;;;;5054132;28;20395;-84
2023/03/27 05:41:23;;;;;;;6.20;4.47;;;;;;;;;;5072349;28;20182;-81
2023/03/27 05:43:50;;;;;;;9.57;6.00;;;;;;;;;;5053683;28;20218;-83
2023/03/27 05:46:16;;;;;;;13.70;7.17;;;;;;;;;;5072222;28;20191;-83
2023/03/27 05:48:42;;;;;;;11.17;5.37;;;;;;;;;;5053808;28;20658;-83
2023/03/27 05:51:09;;;;;;;14.90;6.43;;;;;;;;;;5054389;28;21750;-83
2023/03/27 05:53:38;;;;;;;15.97;6.90;;;6.50;99.90;;;;;;5071916;28;20187;-82
2023/03/27 05:56:05;;;;;;;13.20;6.83;;;6.50;99.90;;;;;;5054028;28;20182;-83
2023/03/27 05:58:31;;;;;;;13.73;5.33;;;;;;;;;;5037756;28;20193;-82
2023/03/27 06:00:57;;;;;;;12.53;5.70;;;;;;;;;;5072234;28;20273;-82
2023/03/27 06:03:28;;;;;;;9.67;4.93;;;;;;;;;;5053915;28;20277;-81
2023/03/27 06:05:55;;;;;;;9.30;6.03;;;;;;;;;;5071813;28;20770;-82
2023/03/27 06:08:21;;;;;;;11.97;5.50;;;;;;;;;;5071801;28;20193;-83
2023/03/27 06:10:47;;;;;;;9.20;5.67;;;;;;;;;;5053768;28;20211;-82
2023/03/27 06:13:14;;;;;;;8.63;5.23;;;;;;;;;;5071392;28;20191;-82
2023/03/27 06:15:42;;;;;;;7.30;3.40;;;6.60;99.90;;;;;;5071527;28;20206;-83
2023/03/27 06:18:09;;;;;;;8.93;4.20;;;;;;;;;;5071820;28;20179;-81
2023/03/27 06:20:36;;;;;;;9.63;4.67;;;6.60;99.90;;;;;;5053656;28;20693;-82
2023/03/27 06:23:05;;;;;;;8.00;4.60;;;6.60;99.90;;;;;;5053031;28;20329;-82
2023/03/27 06:25:33;;;;;;;9.00;4.93;;;6.60;99.90;;;;;;5037578;28;20269;-82
2023/03/27 06:27:59;;;;;;;11.60;5.83;;;;;;;;;;5070494;28;20617;-82
2023/03/27 06:30:26;;;;;;;13.40;6.80;;;;;;;;;;5071562;28;20722;-82
2023/03/27 06:32:57;;;;;;;23.97;7.53;;;6.70;99.90;;;;;;5053194;28;20701;-83
2023/03/27 06:35:23;;;;;;;19.93;7.40;;;;;;;;;;5071842;28;20191;-82
2023/03/27 06:37:52;;;;;;;12.33;5.00;;;;;;;;;;5053398;28;20187;-81
2023/03/27 06:40:23;;;;;;;7.57;4.97;;;6.80;99.90;;;;;;5053332;28;20195;-81
2023/03/27 06:42:57;;;;;;;15.10;5.77;;;7.10;99.90;;;;;;5070739;28;20228;-81
2023/03/27 06:45:28;;;;;;;16.77;7.40;;;6.80;99.90;;;;;;5053505;28;20619;-81
2023/03/27 06:47:57;;;;;;;11.17;5.83;;;6.80;99.90;;;;;;5071361;28;20241;-81
2023/03/27 06:50:25;;;;;;;12.00;6.33;;;6.90;99.90;;;;;;5071238;28;20746;-81
2023/03/27 06:52:51;;;;;;;12.80;6.13;;;;;;;;;;5052624;28;20191;-81
2023/03/27 06:55:19;;;;;;;10.87;6.53;;;6.90;99.90;;;;;;5053464;28;20712;-81
2023/03/27 06:57:47;;;;;;;19.70;7.40;;;6.90;99.90;;;;;;5053644;28;20231;-82
2023/03/27 07:00:23;;;;;;;20.33;9.07;;;7.00;99.90;;;;;;5071828;28;20187;-81
2023/03/27 07:03:09;;;;;;;22.37;7.13;;;7.00;99.90;;;;;;5054398;28;20183;-80
2023/03/27 07:05:37;;;;;;;9.67;5.00;;;7.00;99.90;;;;;;5053231;28;20222;-81
2023/03/27 07:08:09;;;;;;;10.17;5.37;;;7.00;99.90;;;;;;5052976;28;20194;-81
2023/03/27 07:10:35;;;;;;;5.83;4.53;;;;;;;;;;5053181;28;20189;-81
2023/03/27 07:13:01;;;;;;;7.50;3.80;;;;;;;;;;5036050;28;20187;-82
2023/03/27 07:15:28;;;;;;;5.30;3.67;;;;;;;;;;5036281;28;20252;-82
2023/03/27 07:18:05;;;;;;;10.67;4.33;;;6.70;99.90;;;;;;5070895;28;20190;-81
2023/03/27 07:20:31;;;;;;;7.17;4.03;;;;;;;;;;5053258;28;20595;-82
2023/03/27 07:22:59;;;;;;;8.33;4.47;;;7.00;99.90;;;;;;5051821;28;20314;-82
2023/03/27 07:25:26;;;;;;;7.37;4.63;;;7.00;99.90;;;;;;5071022;28;20261;-82
2023/03/27 07:27:59;;;;;;;9.00;5.00;;;7.10;99.90;;;;;;5053364;28;20188;-84
2023/03/27 07:30:26;;;;;;;11.90;4.73;;;;;;;;;;5053120;28;20191;-82
2023/03/27 07:32:52;;;;;;;8.57;4.53;;;;;;;;;;5070627;28;20651;-83
2023/03/27 07:35:18;;;;;;;8.33;4.47;;;;;;;;;;5053724;28;20563;-83
2023/03/27 07:37:44;;;;;;;7.80;4.17;;;;;;;;;;5054481;28;20188;-82
2023/03/27 07:40:12;;;;;;;6.20;3.97;;;6.80;99.90;;;;;;5074810;28;20211;-82
2023/03/27 07:42:43;;;;;;;4.53;3.93;;;;;;;;;;5074640;28;20207;-82
2023/03/27 07:45:12;;;;;;;6.60;3.90;;;7.30;99.90;;;;;;5074883;28;20272;-83
2023/03/27 07:47:40;;;;;;;6.47;3.70;;;7.10;99.90;;;;;;5057087;28;20179;-83
2023/03/27 07:50:08;;;;;;;5.33;3.93;;;7.10;99.90;;;;;;5056132;28;20262;-82
2023/03/27 07:52:35;;;;;;;9.57;4.60;;;;;;;;;;5056029;28;20645;-83
2023/03/27 07:55:01;;;;;;;5.97;4.13;;;;;;;;;;5056498;28;20219;-83
2023/03/27 07:57:28;;;;;;;8.27;4.87;;;;;;;;;;5074830;28;20191;-82
2023/03/27 07:59:56;;;;;;;5.07;3.13;;;;;;;;;;5055980;28;20184;-82
2023/03/27 08:02:23;;;;;;;6.97;3.87;;;;;;;;;;5056279;28;20218;-82
2023/03/27 08:04:50;;;;;;;7.57;4.80;;;;;;;;;;5056046;28;20683;-82
2023/03/27 08:07:20;;;;;;;9.13;4.23;;;;;;;;;;5056023;28;20558;-82
2023/03/27 08:09:47;;;;;;;4.50;3.20;;;;;;;;;;5056260;28;20195;-82
2023/03/27 08:12:14;;;;;;;5.10;3.30;;;;;;;;;;5055890;28;20198;-82
2023/03/27 08:14:40;;;;;;;6.17;3.67;;;;;;;;;;5073855;28;20190;-82
2023/03/27 08:17:06;;;;;;;4.20;3.83;;;;;;;;;;5055455;28;20195;-82
2023/03/27 08:19:32;;;;;;;9.17;4.50;;;;;;;;;;5056000;28;20247;-82
2023/03/27 08:21:58;;;;;;;6.40;3.93;;;;;;;;;;5039093;28;20187;-83
2023/03/27 08:24:25;;;;;;;7.27;4.10;;;;;;;;;;5055054;28;20230;-82
2023/03/27 08:26:51;;;;;;;5.83;3.00;;;;;;;;;;5039588;28;20274;-81
2023/03/27 08:29:17;;;;;;;8.13;3.73;;;;;;;;;;5055416;28;20329;-82
2023/03/27 08:31:43;;;;;;;4.77;2.53;;;;;;;;;;5073583;28;20194;-81
2023/03/27 08:34:09;;;;;;;10.10;4.33;;;;;;;;;;5055105;28;20228;-82
2023/03/27 08:36:37;;;;;;;5.13;2.83;;;;;;;;;;5055990;28;20187;-83
2023/03/27 08:39:03;;;;;;;2.70;2.17;;;;;;;;;;5055212;28;20187;-81
2023/03/27 08:41:41;;;;;;;5.07;2.60;;;7.50;99.90;;;;;;5055907;28;20183;-82
2023/03/27 08:44:12;;;;;;;2.40;2.20;;;7.50;99.90;;;;;;5055098;28;20552;-81
2023/03/27 08:47:07;;;;;;;3.63;2.50;;;7.70;99.90;;;;;;5055852;28;20215;-83
2023/03/27 08:49:41;;;;;;;3.37;2.77;;;7.30;99.90;;;;;;5035307;28;20195;-81
2023/03/27 08:52:07;;;;;;;4.83;2.17;;;;;;;;;;5055518;28;20681;-81
2023/03/27 08:54:38;;;;;;;8.80;3.90;;;7.60;99.90;;;;;;5055149;28;20207;-81
2023/03/27 08:57:18;;;;;;;3.57;2.83;;;7.50;99.90;;;;;;5072972;28;20257;-81
2023/03/27 08:59:45;;;;;;;4.97;3.40;;;;;;;;;;5055039;28;20213;-82
2023/03/27 09:02:34;;;;;;;6.37;3.70;;;7.80;99.90;;;;;;5072885;28;20258;-83
2023/03/27 09:05:39;;;;;;;5.80;4.17;;;7.60;99.90;;;;;;5059335;28;20230;-84
2023/03/27 09:08:20;;;;;;;8.53;4.83;;;7.80;99.90;;;;;;5049821;28;20191;-81
2023/03/27 09:10:54;;;;;;;8.20;4.90;;;8.20;99.90;;;;;;5041587;28;20219;-81
2023/03/27 09:13:31;;;;;;;12.80;5.43;;;7.70;99.90;;;;;;5054581;28;20187;-83
2023/03/27 09:16:16;;;;;;;8.83;5.43;;;7.90;99.90;;;;;;5042696;28;20218;-83
2023/03/27 09:19:27;;;;;;;12.37;5.90;;;8.20;99.90;;;;;;5073022;28;20290;-83
2023/03/27 09:22:26;;;;;;;12.77;5.00;;;8.10;99.90;;;;;;4992229;28;20194;-83
2023/03/27 09:24:55;;;;;;;8.30;5.80;;;7.80;99.90;;;;;;5064224;28;20210;-83
2023/03/27 09:27:28;;;;;;;10.20;5.90;;;7.90;99.90;;;;;;5090822;28;20247;-84
2023/03/27 09:30:17;;;;;;;8.93;6.37;;;7.70;99.90;;;;;;5094833;28;20174;-83
2023/03/27 09:32:45;;;;;;;15.60;8.17;;;7.90;99.90;;;;;;5093371;28;20183;-83
2023/03/27 09:35:16;;;;;;;11.73;6.40;;;7.70;99.90;;;;;;5082361;28;20189;-84
2023/03/27 09:37:42;;;;;;;16.40;8.27;;;;;;;;;;5073619;28;20175;-83
2023/03/27 09:40:22;;;;;;;14.63;8.70;;;7.90;99.90;;;;;;5073674;28;20192;-84
2023/03/27 09:42:51;;;;;;;12.27;7.97;;;8.00;99.90;;;;;;5073900;28;20179;-84
2023/03/27 09:45:19;;;;;;;19.50;10.23;;;8.00;99.90;;;;;;5056205;28;20203;-84
2023/03/27 09:47:51;;;;;;;17.43;8.13;;;8.00;99.90;;;;;;5074199;28;20210;-84
2023/03/27 09:50:33;;;;;;;17.97;9.47;;;8.20;99.90;;;;;;5060170;28;20191;-83
2023/03/27 09:53:19;;;;;;;17.27;9.20;;;8.00;99.90;;;;;;5082606;28;20183;-83
2023/03/27 09:55:54;;;;;;;18.47;10.60;;;7.90;99.90;;;;;;5081921;28;20179;-83
2023/03/27 09:58:45;;;;;;;20.50;9.87;;;8.00;99.90;;;;;;5093182;28;20175;-84
2023/03/27 10:01:14;;;;;;;17.33;7.43;;;;;;;;;;5085797;28;20243;-84
2023/03/27 10:03:50;;;;;;;13.57;7.43;;;8.10;99.90;;;;;;5067391;28;20179;-84
2023/03/27 10:06:26;;;;;;;12.87;7.27;;;8.00;99.90;;;;;;5098146;28;20266;-84
2023/03/27 10:08:54;;;;;;;10.33;6.27;;;;;;;;;;5091053;28;20749;-83
2023/03/27 10:11:27;;;;;;;14.83;7.27;;;8.00;99.90;;;;;;5069963;28;20194;-83
2023/03/27 10:13:53;;;;;;;11.73;6.87;;;8.10;99.90;;;;;;5078463;28;20187;-84
2023/03/27 10:16:21;;;;;;;13.27;6.90;;;8.10;99.90;;;;;;5276913;22;20254;-83
2023/03/27 10:18:52;;;;;;;15.83;8.77;;;8.30;99.90;;;;;;5069330;28;20256;-83
2023/03/27 10:21:28;;;;;;;12.00;8.03;;;8.30;99.90;;;;;;5055189;28;20207;-82
2023/03/27 10:24:05;;;;;;;14.00;6.77;;;8.20;99.90;;;;;;5054196;28;20182;-83
2023/03/27 10:26:35;;;;;;;17.80;10.03;;;8.10;99.90;;;;;;5053667;28;20271;-83
2023/03/27 10:29:24;;;;;;;15.10;8.23;;;8.10;99.90;;;;;;5052482;28;20203;-83
2023/03/27 10:31:53;;;;;;;17.80;9.17;;;8.00;99.90;;;;;;5053722;28;20241;-83
2023/03/27 10:34:42;;;;;;;13.63;8.20;;;8.20;99.90;;;;;;5055303;28;20184;-82
2023/03/27 10:37:40;;;;;;;14.80;8.03;;;8.00;99.90;;;;;;5053432;28;20207;-83
2023/03/27 10:40:15;;;;;;;16.03;6.87;;;8.10;99.90;;;;;;5019010;28;20210;-83
2023/03/27 10:42:41;;;;;;;10.67;6.80;;;;;;;;;;5038981;28;20171;-84
2023/03/27 10:45:15;;;;;;;14.27;7.60;;;8.10;99.90;;;;;;5051823;28;20269;-83
2023/03/27 10:47:46;;;;;;;14.23;7.00;;;8.10;99.90;;;;;;5052765;28;20233;-83
2023/03/27 10:50:22;;;;;;;15.33;7.30;;;8.10;99.90;;;;;;5043430;28;20583;-84
2023/03/27 10:52:59;;;;;;;11.40;6.37;;;8.40;99.90;;;;;;5050490;28;20633;-83
2023/03/27 10:55:56;;;;;;;7.67;4.83;;;8.30;99.90;;;;;;5050343;28;20176;-84
2023/03/27 10:58:35;;;;;;;10.23;4.23;;;7.80;99.90;;;;;;5044204;28;20267;-83
2023/03/27 11:01:10;;;;;;;13.03;6.43;;;8.00;99.90;;;;;;5044712;28;20671;-84
2023/03/27 11:03:47;;;;;;;13.80;6.97;;;7.80;99.90;;;;;;5034404;28;20172;-83
2023/03/27 11:06:16;;;;;;;12.30;6.40;;;7.80;99.90;;;;;;5051931;28;20675;-83
2023/03/27 11:08:42;;;;;;;10.43;5.60;;;;;;;;;;5051454;28;20221;-83
2023/03/27 11:11:16;;;;;;;11.77;5.83;;;8.00;99.90;;;;;;5050139;28;20550;-84
2023/03/27 11:13:45;;;;;;;12.63;6.03;;;8.10;99.90;;;;;;5053526;28;20183;-82
2023/03/27 11:16:35;;;;;;;12.30;6.50;;;8.40;99.90;;;;;;5053829;28;20231;-82
2023/03/27 11:19:09;;;;;;;12.47;6.70;;;8.00;99.90;;;;;;5055611;28;20180;-82
2023/03/27 11:21:41;;;;;;;11.27;6.90;;;8.10;99.90;;;;;;5055216;28;20183;-82
2023/03/27 11:24:19;;;;;;;15.73;6.13;;;8.10;99.90;;;;;;5055065;28;20230;-82
2023/03/27 11:27:02;;;;;;;12.00;6.43;;;8.20;99.90;;;;;;5055539;28;20175;-82
2023/03/27 11:29:38;;;;;;;10.90;6.00;;;7.80;99.90;;;;;;5049338;28;20264;-82
2023/03/27 11:32:32;;;;;;;9.87;5.43;;;8.10;99.90;;;;;;5049091;28;20198;-82
2023/03/27 11:35:05;;;;;;;10.60;5.83;;;8.10;99.90;;;;;;5044966;28;20195;-84
2023/03/27 11:37:32;;;;;;;9.53;5.63;;;;;;;;;;5054966;28;20257;-84
2023/03/27 11:40:30;;;;;;;11.20;5.63;;;8.00;99.90;;;;;;5054044;28;20191;-83
2023/03/27 11:42:57;;;;;;;16.13;6.50;;;;;;;;;;5053970;28;20188;-83
2023/03/27 11:45:26;;;;;;;9.10;5.93;;;8.20;99.90;;;;;;5037375;28;20216;-81
2023/03/27 11:48:16;;;;;;;8.97;5.67;;;8.10;99.90;;;;;;5051483;28;20173;-82
2023/03/27 11:51:14;;;;;;;12.47;6.33;;;8.10;99.90;;;;;;5043485;28;20181;-81
2023/03/27 11:53:52;;;;;;;8.90;5.40;;;8.20;99.90;;;;;;4989930;28;20217;-81
2023/03/27 11:56:36;;;;;;;12.00;5.23;;;8.20;99.90;;;;;;5054723;28;20274;-82
2023/03/27 11:59:08;;;;;;;12.30;7.33;;;8.20;99.90;;;;;;5053584;28;20199;-81
2023/03/27 12:01:49;;;;;;;14.23;6.10;;;7.90;99.90;;;;;;5052190;28;20211;-80
2023/03/27 12:04:30;;;;;;;11.73;6.23;;;8.30;99.90;;;;;;5042992;28;20239;-83
2023/03/27 12:07:21;;;;;;;11.70;5.97;;;8.30;99.90;;;;;;5052922;28;20767;-83
2023/03/27 12:10:08;;;;;;;7.57;5.83;;;8.10;99.90;;;;;;5055167;28;20179;-82
2023/03/27 12:12:52;;;;;;;9.73;5.70;;;8.20;99.90;;;;;;5041293;28;20180;-83
2023/03/27 12:15:18;;;;;;;11.13;6.53;;;;;;;;;;5054411;28;20191;-84
2023/03/27 12:18:02;;;;;;;12.30;6.07;;;8.20;99.90;;;;;;5052969;28;20235;-84
2023/03/27 12:20:40;;;;;;;14.73;7.03;;;8.40;99.90;;;;;;5052786;28;20212;-83
2023/03/27 12:23:18;;;;;;;13.30;6.83;;;8.20;99.90;;;;;;5052889;28;20183;-82
2023/03/27 12:26:06;;;;;;;15.60;6.17;;;7.80;99.90;;;;;;5051531;28;20676;-82
2023/03/27 12:28:37;;;;;;;17.03;5.67;;;7.20;99.90;;;;;;5054073;28;20176;-82
2023/03/27 12:31:04;;;;;;;13.80;6.27;;;;;;;;;;5040074;28;20172;-83
2023/03/27 12:33:42;;;;;;;8.87;4.10;;;7.20;99.90;;;;;;5053601;28;20233;-83
2023/03/27 12:36:13;;;;;;;5.00;3.13;;;7.10;99.90;;;;;;5052703;28;20179;-82
2023/03/27 12:38:42;;;;;;;4.50;2.80;;;7.10;99.90;;;;;;5055643;28;20190;-83
2023/03/27 12:41:12;;;;;;;4.80;2.20;;;;;;;;;;5049603;28;20200;-82
2023/03/27 12:43:43;;;;;;;3.93;2.63;;;7.00;99.90;;;;;;5043091;28;20184;-82
2023/03/27 12:46:13;;;;;;;3.57;2.43;;;7.00;99.90;;;;;;5053808;28;20192;-83
2023/03/27 12:49:00;;;;;;;8.13;3.40;;;6.80;99.90;;;;;;5050301;28;20208;-83
2023/03/27 12:51:51;;;;;;;4.80;3.13;;;6.90;99.90;;;;;;5047753;28;20303;-85
2023/03/27 12:54:26;;;;;;;5.33;3.37;;;7.10;99.90;;;;;;5033634;28;20188;-83
2023/03/27 12:57:20;;;;;;;6.57;3.77;;;6.80;99.90;;;;;;5052213;28;20590;-84
2023/03/27 12:59:46;;;;;;;12.43;4.90;;;;;;;;;;5051751;28;20509;-83
2023/03/27 13:02:33;;;;;;;4.20;2.77;;;6.50;99.90;;;;;;5046858;28;20632;-83
2023/03/27 13:05:09;;;;;;;5.07;3.40;;;6.50;99.90;;;;;;5045033;28;20226;-83
2023/03/27 13:07:35;;;;;;;7.33;2.93;;;;;;;;;;5032178;28;20589;-83
2023/03/27 13:10:39;;;;;;;5.50;3.47;;;6.20;99.90;;;;;;5033081;28;20215;-83
2023/03/27 13:13:36;;;;;;;7.13;4.00;;;6.40;99.90;;;;;;5032536;28;20187;-83
2023/03/27 13:16:02;;;;;;;7.57;4.43;;;;;;;;;;5047615;28;20278;-85
2023/03/27 13:18:54;;;;;;;5.77;3.60;;;6.20;99.90;;;;;;5037494;28;20279;-84
2023/03/27 13:21:56;;;;;;;6.23;3.40;;;6.20;99.90;;;;;;5041365;28;20531;-84
2023/03/27 13:24:48;;;;;;;6.77;4.10;;;5.80;99.90;;;;;;5053301;28;20282;-82
2023/03/27 13:28:04;;;;;;;8.93;4.57;;;6.30;99.90;;;;;;5052935;28;20267;-83
2023/03/27 13:30:51;;;;;;;6.30;3.70;;;5.90;99.90;;;;;;5003359;28;20212;-83
2023/03/27 13:33:26;;;;;;;8.40;3.20;;;6.00;99.90;;;;;;5042867;28;20628;-82
2023/03/27 13:36:03;;;;;;;12.03;5.03;;;5.80;99.90;;;;;;5050997;28;20237;-85
2023/03/27 13:38:44;;;;;;;5.83;3.63;;;5.90;99.90;;;;;;5052841;28;20624;-86
2023/03/27 13:41:54;;;;;;;7.40;3.73;;;6.10;99.90;;;;;;5048675;28;20175;-82
2023/03/27 13:44:27;;;;;;;6.27;4.07;;;5.80;99.90;;;;;;4988963;28;20308;-83
2023/03/27 13:47:16;;;;;;;8.13;5.17;;;6.10;99.90;;;;;;5000497;28;20193;-84
2023/03/27 13:49:42;;;;;;;10.43;4.93;;;;;;;;;;5021762;28;20203;-83
2023/03/27 13:52:39;;;;;;;7.40;4.30;;;5.60;99.90;;;;;;5043733;28;20196;-82
2023/03/27 13:55:46;;;;;;;5.30;4.00;;;5.60;99.90;;;;;;5040167;28;20188;-82
2023/03/27 13:58:25;;;;;;;5.40;3.43;;;6.30;99.90;;;;;;5044302;28;20195;-82
2023/03/27 14:01:12;;;;;;;8.97;4.90;;;6.00;99.90;;;;;;5036040;28;20203;-82
2023/03/27 14:04:19;;;;;;;6.83;4.13;;;5.90;99.90;;;;;;5042829;28;20180;-81